sensor_id;sensor_type;location;lat;lon;timestamp;P1;durP1;ratioP1;P2;durP2;ratioP2
57605;SDS011;43430;48.204;11.556;2022-12-07T00:00:29;14.43;;;6.95;;
57605;SDS011;43430;48.204;11.556;2022-12-07T00:02:55;11.23;;;5.95;;
57605;SDS011;43430;48.204;11.556;2022-12-07T00:05:20;17.38;;;6.55;;
57605;SDS011;43430;48.204;11.556;2022-12-07T00:07:45;12.73;;;5.70;;
57605;SDS011;43430;48.204;11.556;2022-12-07T00:10:11;10.13;;;5.43;;
57605;SDS011;43430;48.204;11.556;2022-12-07T00:12:36;13.20;;;5.90;;
57605;SDS011;43430;48.204;11.556;2022-12-07T00:15:02;12.77;;;6.32;;
57605;SDS011;43430;48.204;11.556;2022-12-07T00:17:27;12.98;;;5.72;;
57605;SDS011;43430;48.204;11.556;2022-12-07T00:19:53;12.13;;;6.18;;
57605;SDS011;43430;48.204;11.556;2022-12-07T00:22:18;12.50;;;6.20;;
57605;SDS011;43430;48.204;11.556;2022-12-07T00:24:43;12.10;;;5.68;;
57605;SDS011;43430;48.204;11.556;2022-12-07T00:27:08;12.88;;;6.18;;
57605;SDS011;43430;48.204;11.556;2022-12-07T00:29:34;12.80;;;5.88;;
57605;SDS011;43430;48.204;11.556;2022-12-07T00:31:59;13.18;;;6.38;;
57605;SDS011;43430;48.204;11.556;2022-12-07T00:34:24;13.30;;;6.03;;
57605;SDS011;43430;48.204;11.556;2022-12-07T00:36:50;13.35;;;6.88;;
57605;SDS011;43430;48.204;11.556;2022-12-07T00:39:15;10.98;;;5.80;;
57605;SDS011;43430;48.204;11.556;2022-12-07T00:41:41;10.98;;;5.68;;
57605;SDS011;43430;48.204;11.556;2022-12-07T00:44:07;12.38;;;6.00;;
57605;SDS011;43430;48.204;11.556;2022-12-07T00:46:32;12.90;;;6.38;;
57605;SDS011;43430;48.204;11.556;2022-12-07T00:48:57;12.77;;;6.22;;
57605;SDS011;43430;48.204;11.556;2022-12-07T00:51:23;14.13;;;6.57;;
57605;SDS011;43430;48.204;11.556;2022-12-07T00:53:50;13.85;;;6.45;;
57605;SDS011;43430;48.204;11.556;2022-12-07T00:56:23;11.93;;;5.78;;
57605;SDS011;43430;48.204;11.556;2022-12-07T00:58:54;14.60;;;6.65;;
57605;SDS011;43430;48.204;11.556;2022-12-07T01:01:20;12.10;;;6.00;;
57605;SDS011;43430;48.204;11.556;2022-12-07T01:03:47;11.43;;;5.47;;
57605;SDS011;43430;48.204;11.556;2022-12-07T01:06:16;12.73;;;6.45;;
57605;SDS011;43430;48.204;11.556;2022-12-07T01:08:42;15.50;;;7.05;;
57605;SDS011;43430;48.204;11.556;2022-12-07T01:11:09;15.32;;;6.53;;
57605;SDS011;43430;48.204;11.556;2022-12-07T01:13:36;14.68;;;5.85;;
57605;SDS011;43430;48.204;11.556;2022-12-07T01:16:03;12.25;;;6.53;;
57605;SDS011;43430;48.204;11.556;2022-12-07T01:18:30;12.18;;;5.93;;
57605;SDS011;43430;48.204;11.556;2022-12-07T01:20:57;12.48;;;5.68;;
57605;SDS011;43430;48.204;11.556;2022-12-07T01:23:36;13.10;;;5.45;;
57605;SDS011;43430;48.204;11.556;2022-12-07T01:26:03;14.45;;;6.85;;
57605;SDS011;43430;48.204;11.556;2022-12-07T01:28:30;12.15;;;6.03;;
57605;SDS011;43430;48.204;11.556;2022-12-07T01:31:17;9.60;;;5.00;;
57605;SDS011;43430;48.204;11.556;2022-12-07T01:33:44;14.10;;;6.28;;
57605;SDS011;43430;48.204;11.556;2022-12-07T01:38:50;13.23;;;6.20;;
57605;SDS011;43430;48.204;11.556;2022-12-07T01:41:17;13.60;;;6.53;;
57605;SDS011;43430;48.204;11.556;2022-12-07T01:46:36;11.32;;;5.85;;
57605;SDS011;43430;48.204;11.556;2022-12-07T01:49:02;10.30;;;5.43;;
57605;SDS011;43430;48.204;11.556;2022-12-07T01:51:31;12.32;;;6.00;;
57605;SDS011;43430;48.204;11.556;2022-12-07T01:53:56;11.80;;;6.20;;
57605;SDS011;43430;48.204;11.556;2022-12-07T01:56:24;11.55;;;5.97;;
57605;SDS011;43430;48.204;11.556;2022-12-07T01:58:52;13.23;;;6.25;;
57605;SDS011;43430;48.204;11.556;2022-12-07T02:01:19;13.70;;;6.22;;
57605;SDS011;43430;48.204;11.556;2022-12-07T02:03:45;13.13;;;5.88;;
57605;SDS011;43430;48.204;11.556;2022-12-07T02:06:12;12.93;;;6.18;;
57605;SDS011;43430;48.204;11.556;2022-12-07T02:08:43;14.55;;;6.47;;
57605;SDS011;43430;48.204;11.556;2022-12-07T02:11:10;12.70;;;6.10;;
57605;SDS011;43430;48.204;11.556;2022-12-07T02:13:37;11.27;;;6.22;;
57605;SDS011;43430;48.204;11.556;2022-12-07T02:24:57;13.35;;;6.07;;
57605;SDS011;43430;48.204;11.556;2022-12-07T02:30:21;13.45;;;6.68;;
57605;SDS011;43430;48.204;11.556;2022-12-07T02:38:11;13.35;;;6.55;;
57605;SDS011;43430;48.204;11.556;2022-12-07T02:43:38;10.32;;;5.47;;
57605;SDS011;43430;48.204;11.556;2022-12-07T02:46:12;12.40;;;5.68;;
57605;SDS011;43430;48.204;11.556;2022-12-07T02:48:42;13.85;;;5.93;;
57605;SDS011;43430;48.204;11.556;2022-12-07T02:51:08;13.23;;;6.07;;
57605;SDS011;43430;48.204;11.556;2022-12-07T02:53:37;13.23;;;6.43;;
57605;SDS011;43430;48.204;11.556;2022-12-07T03:07:00;13.10;;;6.13;;
57605;SDS011;43430;48.204;11.556;2022-12-07T03:09:37;14.23;;;6.40;;
57605;SDS011;43430;48.204;11.556;2022-12-07T03:12:14;11.98;;;5.63;;
57605;SDS011;43430;48.204;11.556;2022-12-07T03:14:55;13.60;;;5.45;;
57605;SDS011;43430;48.204;11.556;2022-12-07T03:17:30;12.10;;;6.32;;
57605;SDS011;43430;48.204;11.556;2022-12-07T03:19:59;11.90;;;6.00;;
57605;SDS011;43430;48.204;11.556;2022-12-07T03:22:28;11.43;;;5.88;;
57605;SDS011;43430;48.204;11.556;2022-12-07T03:24:57;10.98;;;5.10;;
57605;SDS011;43430;48.204;11.556;2022-12-07T03:27:26;13.73;;;6.07;;
57605;SDS011;43430;48.204;11.556;2022-12-07T03:29:59;12.70;;;6.32;;
57605;SDS011;43430;48.204;11.556;2022-12-07T03:35:25;13.43;;;6.18;;
57605;SDS011;43430;48.204;11.556;2022-12-07T03:40:34;11.73;;;5.55;;
57605;SDS011;43430;48.204;11.556;2022-12-07T03:43:04;14.43;;;6.75;;
57605;SDS011;43430;48.204;11.556;2022-12-07T03:45:53;14.48;;;6.38;;
57605;SDS011;43430;48.204;11.556;2022-12-07T03:48:37;11.82;;;5.80;;
57605;SDS011;43430;48.204;11.556;2022-12-07T03:54:15;12.35;;;6.70;;
57605;SDS011;43430;48.204;11.556;2022-12-07T03:56:46;10.38;;;5.43;;
57605;SDS011;43430;48.204;11.556;2022-12-07T03:59:13;15.05;;;7.07;;
57605;SDS011;43430;48.204;11.556;2022-12-07T04:01:51;13.68;;;6.85;;
57605;SDS011;43430;48.204;11.556;2022-12-07T04:04:18;13.05;;;6.40;;
57605;SDS011;43430;48.204;11.556;2022-12-07T04:06:44;13.07;;;6.07;;
57605;SDS011;43430;48.204;11.556;2022-12-07T04:09:09;12.30;;;5.72;;
57605;SDS011;43430;48.204;11.556;2022-12-07T04:11:34;12.70;;;5.97;;
57605;SDS011;43430;48.204;11.556;2022-12-07T04:14:00;14.50;;;7.30;;
57605;SDS011;43430;48.204;11.556;2022-12-07T04:16:44;11.68;;;6.38;;
57605;SDS011;43430;48.204;11.556;2022-12-07T04:19:13;16.30;;;7.03;;
57605;SDS011;43430;48.204;11.556;2022-12-07T04:21:38;14.88;;;7.15;;
57605;SDS011;43430;48.204;11.556;2022-12-07T04:24:04;14.27;;;6.80;;
57605;SDS011;43430;48.204;11.556;2022-12-07T04:26:30;14.15;;;7.47;;
57605;SDS011;43430;48.204;11.556;2022-12-07T04:28:55;15.90;;;7.80;;
57605;SDS011;43430;48.204;11.556;2022-12-07T04:31:20;17.88;;;7.90;;
57605;SDS011;43430;48.204;11.556;2022-12-07T04:33:46;17.40;;;7.88;;
57605;SDS011;43430;48.204;11.556;2022-12-07T04:36:11;17.98;;;8.35;;
57605;SDS011;43430;48.204;11.556;2022-12-07T04:38:36;15.18;;;7.72;;
57605;SDS011;43430;48.204;11.556;2022-12-07T04:41:05;13.52;;;6.85;;
57605;SDS011;43430;48.204;11.556;2022-12-07T04:43:32;16.10;;;7.45;;
57605;SDS011;43430;48.204;11.556;2022-12-07T04:45:58;15.40;;;7.63;;
57605;SDS011;43430;48.204;11.556;2022-12-07T04:48:23;15.43;;;7.25;;
57605;SDS011;43430;48.204;11.556;2022-12-07T04:50:48;15.02;;;6.90;;
57605;SDS011;43430;48.204;11.556;2022-12-07T04:53:17;13.60;;;7.47;;
57605;SDS011;43430;48.204;11.556;2022-12-07T04:55:43;14.02;;;7.10;;
57605;SDS011;43430;48.204;11.556;2022-12-07T04:58:09;18.98;;;8.68;;
57605;SDS011;43430;48.204;11.556;2022-12-07T05:00:34;15.57;;;7.55;;
57605;SDS011;43430;48.204;11.556;2022-12-07T05:03:00;15.45;;;7.65;;
57605;SDS011;43430;48.204;11.556;2022-12-07T05:05:25;13.95;;;6.97;;
57605;SDS011;43430;48.204;11.556;2022-12-07T05:07:50;17.52;;;7.82;;
57605;SDS011;43430;48.204;11.556;2022-12-07T05:10:16;14.18;;;7.13;;
57605;SDS011;43430;48.204;11.556;2022-12-07T05:12:41;15.57;;;7.38;;
57605;SDS011;43430;48.204;11.556;2022-12-07T05:15:07;15.52;;;7.07;;
57605;SDS011;43430;48.204;11.556;2022-12-07T05:17:33;14.50;;;7.15;;
57605;SDS011;43430;48.204;11.556;2022-12-07T05:19:58;12.38;;;7.07;;
57605;SDS011;43430;48.204;11.556;2022-12-07T05:22:24;14.40;;;6.97;;
57605;SDS011;43430;48.204;11.556;2022-12-07T05:24:53;13.20;;;6.32;;
57605;SDS011;43430;48.204;11.556;2022-12-07T05:27:19;15.35;;;7.32;;
57605;SDS011;43430;48.204;11.556;2022-12-07T05:29:44;15.50;;;6.95;;
57605;SDS011;43430;48.204;11.556;2022-12-07T05:32:10;14.23;;;6.90;;
57605;SDS011;43430;48.204;11.556;2022-12-07T05:34:35;15.02;;;7.43;;
57605;SDS011;43430;48.204;11.556;2022-12-07T05:37:00;13.68;;;6.80;;
57605;SDS011;43430;48.204;11.556;2022-12-07T05:39:26;15.45;;;7.22;;
57605;SDS011;43430;48.204;11.556;2022-12-07T05:41:51;16.27;;;6.68;;
57605;SDS011;43430;48.204;11.556;2022-12-07T05:44:35;16.88;;;7.53;;
57605;SDS011;43430;48.204;11.556;2022-12-07T05:47:00;14.68;;;7.28;;
57605;SDS011;43430;48.204;11.556;2022-12-07T05:49:26;16.30;;;7.70;;
57605;SDS011;43430;48.204;11.556;2022-12-07T05:51:51;15.25;;;7.38;;
57605;SDS011;43430;48.204;11.556;2022-12-07T05:54:17;16.60;;;8.18;;
57605;SDS011;43430;48.204;11.556;2022-12-07T05:56:42;15.27;;;7.13;;
57605;SDS011;43430;48.204;11.556;2022-12-07T05:59:08;16.10;;;8.07;;
57605;SDS011;43430;48.204;11.556;2022-12-07T06:04:15;16.02;;;7.28;;
57605;SDS011;43430;48.204;11.556;2022-12-07T06:06:41;14.63;;;7.32;;
57605;SDS011;43430;48.204;11.556;2022-12-07T06:09:06;15.32;;;7.63;;
57605;SDS011;43430;48.204;11.556;2022-12-07T06:11:32;13.75;;;7.10;;
57605;SDS011;43430;48.204;11.556;2022-12-07T06:14:16;14.50;;;7.85;;
57605;SDS011;43430;48.204;11.556;2022-12-07T06:16:41;15.25;;;7.28;;
57605;SDS011;43430;48.204;11.556;2022-12-07T06:19:07;16.27;;;8.50;;
57605;SDS011;43430;48.204;11.556;2022-12-07T06:21:32;16.50;;;8.55;;
57605;SDS011;43430;48.204;11.556;2022-12-07T06:23:57;15.73;;;7.90;;
57605;SDS011;43430;48.204;11.556;2022-12-07T06:26:23;18.55;;;8.55;;
57605;SDS011;43430;48.204;11.556;2022-12-07T06:28:48;16.63;;;7.55;;
57605;SDS011;43430;48.204;11.556;2022-12-07T06:31:14;18.05;;;8.80;;
57605;SDS011;43430;48.204;11.556;2022-12-07T06:33:39;15.43;;;7.57;;
57605;SDS011;43430;48.204;11.556;2022-12-07T06:36:05;16.35;;;7.75;;
57605;SDS011;43430;48.204;11.556;2022-12-07T06:38:31;18.77;;;9.10;;
57605;SDS011;43430;48.204;11.556;2022-12-07T06:40:56;17.20;;;8.38;;
57605;SDS011;43430;48.204;11.556;2022-12-07T06:43:22;16.33;;;7.65;;
57605;SDS011;43430;48.204;11.556;2022-12-07T06:45:47;15.43;;;8.35;;
57605;SDS011;43430;48.204;11.556;2022-12-07T06:48:12;15.05;;;7.35;;
57605;SDS011;43430;48.204;11.556;2022-12-07T06:50:38;18.08;;;8.48;;
57605;SDS011;43430;48.204;11.556;2022-12-07T06:53:03;19.17;;;9.10;;
57605;SDS011;43430;48.204;11.556;2022-12-07T06:55:29;16.90;;;7.70;;
57605;SDS011;43430;48.204;11.556;2022-12-07T06:57:54;19.70;;;8.23;;
57605;SDS011;43430;48.204;11.556;2022-12-07T07:00:19;17.65;;;7.97;;
57605;SDS011;43430;48.204;11.556;2022-12-07T07:02:45;18.73;;;8.35;;
57605;SDS011;43430;48.204;11.556;2022-12-07T07:05:10;17.42;;;7.97;;
57605;SDS011;43430;48.204;11.556;2022-12-07T07:07:35;16.30;;;7.07;;
57605;SDS011;43430;48.204;11.556;2022-12-07T07:10:01;17.00;;;8.10;;
57605;SDS011;43430;48.204;11.556;2022-12-07T07:12:26;18.15;;;8.43;;
57605;SDS011;43430;48.204;11.556;2022-12-07T07:14:52;14.57;;;8.10;;
57605;SDS011;43430;48.204;11.556;2022-12-07T07:17:17;17.15;;;8.30;;
57605;SDS011;43430;48.204;11.556;2022-12-07T07:19:42;15.77;;;7.97;;
57605;SDS011;43430;48.204;11.556;2022-12-07T07:22:08;17.35;;;7.70;;
57605;SDS011;43430;48.204;11.556;2022-12-07T07:24:33;16.90;;;8.93;;
57605;SDS011;43430;48.204;11.556;2022-12-07T07:26:58;16.63;;;8.57;;
57605;SDS011;43430;48.204;11.556;2022-12-07T07:29:24;17.63;;;8.50;;
57605;SDS011;43430;48.204;11.556;2022-12-07T07:31:49;17.17;;;8.13;;
57605;SDS011;43430;48.204;11.556;2022-12-07T07:34:14;16.98;;;8.82;;
57605;SDS011;43430;48.204;11.556;2022-12-07T07:36:40;22.15;;;9.32;;
57605;SDS011;43430;48.204;11.556;2022-12-07T07:39:05;18.33;;;9.73;;
57605;SDS011;43430;48.204;11.556;2022-12-07T07:41:31;19.98;;;9.73;;
57605;SDS011;43430;48.204;11.556;2022-12-07T07:43:57;17.85;;;8.77;;
57605;SDS011;43430;48.204;11.556;2022-12-07T07:46:22;19.15;;;8.48;;
57605;SDS011;43430;48.204;11.556;2022-12-07T07:48:48;17.85;;;8.13;;
57605;SDS011;43430;48.204;11.556;2022-12-07T07:51:13;18.90;;;9.32;;
57605;SDS011;43430;48.204;11.556;2022-12-07T07:53:39;17.60;;;8.73;;
57605;SDS011;43430;48.204;11.556;2022-12-07T07:56:04;16.48;;;8.07;;
57605;SDS011;43430;48.204;11.556;2022-12-07T07:58:30;17.55;;;9.02;;
57605;SDS011;43430;48.204;11.556;2022-12-07T08:00:55;18.13;;;9.43;;
57605;SDS011;43430;48.204;11.556;2022-12-07T08:03:20;19.27;;;9.43;;
57605;SDS011;43430;48.204;11.556;2022-12-07T08:05:46;17.58;;;9.48;;
57605;SDS011;43430;48.204;11.556;2022-12-07T08:08:11;18.30;;;9.40;;
57605;SDS011;43430;48.204;11.556;2022-12-07T08:10:37;19.77;;;8.60;;
57605;SDS011;43430;48.204;11.556;2022-12-07T08:13:02;20.02;;;9.57;;
57605;SDS011;43430;48.204;11.556;2022-12-07T08:15:39;18.38;;;8.43;;
57605;SDS011;43430;48.204;11.556;2022-12-07T08:18:05;17.38;;;8.63;;
57605;SDS011;43430;48.204;11.556;2022-12-07T08:20:31;22.25;;;9.25;;
57605;SDS011;43430;48.204;11.556;2022-12-07T08:22:58;16.52;;;8.75;;
57605;SDS011;43430;48.204;11.556;2022-12-07T08:25:23;21.27;;;9.70;;
57605;SDS011;43430;48.204;11.556;2022-12-07T08:27:49;16.52;;;8.07;;
57605;SDS011;43430;48.204;11.556;2022-12-07T08:30:16;16.75;;;8.10;;
57605;SDS011;43430;48.204;11.556;2022-12-07T08:32:43;18.63;;;8.95;;
57605;SDS011;43430;48.204;11.556;2022-12-07T08:35:09;18.25;;;8.95;;
57605;SDS011;43430;48.204;11.556;2022-12-07T08:37:35;16.92;;;8.95;;
57605;SDS011;43430;48.204;11.556;2022-12-07T08:40:00;20.20;;;9.98;;
57605;SDS011;43430;48.204;11.556;2022-12-07T08:42:26;22.05;;;10.60;;
57605;SDS011;43430;48.204;11.556;2022-12-07T08:44:55;19.88;;;9.60;;
57605;SDS011;43430;48.204;11.556;2022-12-07T08:47:22;17.60;;;8.82;;
57605;SDS011;43430;48.204;11.556;2022-12-07T08:49:49;19.80;;;8.48;;
57605;SDS011;43430;48.204;11.556;2022-12-07T08:52:17;21.25;;;8.57;;
57605;SDS011;43430;48.204;11.556;2022-12-07T08:54:43;19.10;;;8.90;;
57605;SDS011;43430;48.204;11.556;2022-12-07T08:57:10;18.13;;;9.00;;
57605;SDS011;43430;48.204;11.556;2022-12-07T08:59:36;18.20;;;8.70;;
57605;SDS011;43430;48.204;11.556;2022-12-07T09:02:04;20.83;;;8.73;;
57605;SDS011;43430;48.204;11.556;2022-12-07T09:04:30;17.48;;;8.52;;
57605;SDS011;43430;48.204;11.556;2022-12-07T09:06:56;19.80;;;8.05;;
57605;SDS011;43430;48.204;11.556;2022-12-07T09:09:21;16.48;;;8.25;;
57605;SDS011;43430;48.204;11.556;2022-12-07T09:11:47;19.83;;;8.48;;
57605;SDS011;43430;48.204;11.556;2022-12-07T09:14:12;17.60;;;8.27;;
57605;SDS011;43430;48.204;11.556;2022-12-07T09:16:38;18.23;;;8.23;;
57605;SDS011;43430;48.204;11.556;2022-12-07T09:19:04;16.10;;;8.23;;
57605;SDS011;43430;48.204;11.556;2022-12-07T09:21:29;15.75;;;7.47;;
57605;SDS011;43430;48.204;11.556;2022-12-07T09:23:55;17.00;;;7.72;;
57605;SDS011;43430;48.204;11.556;2022-12-07T09:26:21;16.27;;;7.18;;
57605;SDS011;43430;48.204;11.556;2022-12-07T09:28:46;16.40;;;8.73;;
57605;SDS011;43430;48.204;11.556;2022-12-07T09:31:12;15.85;;;7.47;;
57605;SDS011;43430;48.204;11.556;2022-12-07T09:33:37;17.10;;;7.53;;
57605;SDS011;43430;48.204;11.556;2022-12-07T09:36:03;17.38;;;7.80;;
57605;SDS011;43430;48.204;11.556;2022-12-07T09:38:28;13.60;;;7.03;;
57605;SDS011;43430;48.204;11.556;2022-12-07T09:40:54;17.02;;;7.20;;
57605;SDS011;43430;48.204;11.556;2022-12-07T09:43:21;13.80;;;6.95;;
57605;SDS011;43430;48.204;11.556;2022-12-07T09:45:53;17.20;;;7.90;;
57605;SDS011;43430;48.204;11.556;2022-12-07T09:48:21;17.92;;;7.78;;
57605;SDS011;43430;48.204;11.556;2022-12-07T09:50:50;15.52;;;7.47;;
57605;SDS011;43430;48.204;11.556;2022-12-07T09:56:02;16.35;;;7.38;;
57605;SDS011;43430;48.204;11.556;2022-12-07T09:58:29;15.82;;;7.80;;
57605;SDS011;43430;48.204;11.556;2022-12-07T10:00:57;16.25;;;7.20;;
57605;SDS011;43430;48.204;11.556;2022-12-07T10:03:29;12.93;;;6.60;;
57605;SDS011;43430;48.204;11.556;2022-12-07T10:05:54;17.00;;;8.18;;
57605;SDS011;43430;48.204;11.556;2022-12-07T10:08:22;14.43;;;7.18;;
57605;SDS011;43430;48.204;11.556;2022-12-07T10:10:51;15.95;;;8.18;;
57605;SDS011;43430;48.204;11.556;2022-12-07T10:13:19;13.57;;;6.60;;
57605;SDS011;43430;48.204;11.556;2022-12-07T10:18:26;13.25;;;6.95;;
57605;SDS011;43430;48.204;11.556;2022-12-07T10:20:59;14.70;;;6.78;;
57605;SDS011;43430;48.204;11.556;2022-12-07T10:23:37;13.68;;;6.35;;
57605;SDS011;43430;48.204;11.556;2022-12-07T10:26:20;14.65;;;6.43;;
57605;SDS011;43430;48.204;11.556;2022-12-07T10:29:01;13.20;;;6.68;;
57605;SDS011;43430;48.204;11.556;2022-12-07T10:31:39;13.15;;;6.45;;
57605;SDS011;43430;48.204;11.556;2022-12-07T10:34:24;15.98;;;6.70;;
57605;SDS011;43430;48.204;11.556;2022-12-07T10:36:52;14.82;;;6.93;;
57605;SDS011;43430;48.204;11.556;2022-12-07T10:39:19;12.30;;;5.78;;
57605;SDS011;43430;48.204;11.556;2022-12-07T10:42:15;11.80;;;5.32;;
57605;SDS011;43430;48.204;11.556;2022-12-07T10:44:41;13.73;;;5.85;;
57605;SDS011;43430;48.204;11.556;2022-12-07T10:53:01;12.80;;;5.82;;
57605;SDS011;43430;48.204;11.556;2022-12-07T11:01:32;11.70;;;5.35;;
57605;SDS011;43430;48.204;11.556;2022-12-07T11:20:12;10.20;;;5.18;;
57605;SDS011;43430;48.204;11.556;2022-12-07T11:22:51;11.07;;;4.32;;
57605;SDS011;43430;48.204;11.556;2022-12-07T11:25:41;12.02;;;4.60;;
57605;SDS011;43430;48.204;11.556;2022-12-07T11:37:25;8.70;;;3.40;;
57605;SDS011;43430;48.204;11.556;2022-12-07T11:39:59;8.23;;;3.55;;
57605;SDS011;43430;48.204;11.556;2022-12-07T11:42:29;8.25;;;4.00;;
57605;SDS011;43430;48.204;11.556;2022-12-07T11:45:04;7.57;;;2.88;;
57605;SDS011;43430;48.204;11.556;2022-12-07T11:47:54;10.57;;;4.00;;
57605;SDS011;43430;48.204;11.556;2022-12-07T11:50:26;9.07;;;3.88;;
57605;SDS011;43430;48.204;11.556;2022-12-07T11:53:01;9.93;;;4.18;;
57605;SDS011;43430;48.204;11.556;2022-12-07T11:55:42;7.95;;;4.10;;
57605;SDS011;43430;48.204;11.556;2022-12-07T12:04:07;8.45;;;3.75;;
57605;SDS011;43430;48.204;11.556;2022-12-07T12:06:48;11.95;;;4.20;;
57605;SDS011;43430;48.204;11.556;2022-12-07T12:14:34;9.18;;;4.35;;
57605;SDS011;43430;48.204;11.556;2022-12-07T12:20:29;9.20;;;4.35;;
57605;SDS011;43430;48.204;11.556;2022-12-07T12:25:53;9.18;;;4.00;;
57605;SDS011;43430;48.204;11.556;2022-12-07T12:28:23;12.50;;;4.22;;
57605;SDS011;43430;48.204;11.556;2022-12-07T12:33:45;9.65;;;4.53;;
57605;SDS011;43430;48.204;11.556;2022-12-07T12:44:00;7.88;;;3.58;;
57605;SDS011;43430;48.204;11.556;2022-12-07T12:49:14;6.65;;;2.83;;
57605;SDS011;43430;48.204;11.556;2022-12-07T12:51:58;8.60;;;2.47;;
57605;SDS011;43430;48.204;11.556;2022-12-07T12:54:27;12.95;;;4.00;;
57605;SDS011;43430;48.204;11.556;2022-12-07T13:04:58;7.35;;;3.55;;
57605;SDS011;43430;48.204;11.556;2022-12-07T13:10:33;7.25;;;2.92;;
57605;SDS011;43430;48.204;11.556;2022-12-07T13:23:31;9.55;;;4.03;;
57605;SDS011;43430;48.204;11.556;2022-12-07T13:26:19;9.35;;;3.60;;
57605;SDS011;43430;48.204;11.556;2022-12-07T13:28:46;10.23;;;3.63;;
57605;SDS011;43430;48.204;11.556;2022-12-07T13:31:19;7.57;;;2.88;;
57605;SDS011;43430;48.204;11.556;2022-12-07T13:33:54;7.32;;;3.45;;
57605;SDS011;43430;48.204;11.556;2022-12-07T13:38:50;9.05;;;4.32;;
57605;SDS011;43430;48.204;11.556;2022-12-07T13:41:21;9.13;;;4.13;;
57605;SDS011;43430;48.204;11.556;2022-12-07T13:46:48;9.45;;;4.00;;
57605;SDS011;43430;48.204;11.556;2022-12-07T13:51:51;7.60;;;3.22;;
57605;SDS011;43430;48.204;11.556;2022-12-07T13:54:19;8.57;;;3.55;;
57605;SDS011;43430;48.204;11.556;2022-12-07T13:56:47;7.53;;;3.58;;
57605;SDS011;43430;48.204;11.556;2022-12-07T13:59:16;9.60;;;3.78;;
57605;SDS011;43430;48.204;11.556;2022-12-07T14:01:45;9.82;;;4.30;;
57605;SDS011;43430;48.204;11.556;2022-12-07T14:06:48;8.07;;;3.83;;
57605;SDS011;43430;48.204;11.556;2022-12-07T14:09:17;8.55;;;3.40;;
57605;SDS011;43430;48.204;11.556;2022-12-07T14:11:45;7.95;;;3.85;;
57605;SDS011;43430;48.204;11.556;2022-12-07T14:14:14;9.20;;;3.70;;
57605;SDS011;43430;48.204;11.556;2022-12-07T14:16:42;9.73;;;4.63;;
57605;SDS011;43430;48.204;11.556;2022-12-07T14:22:18;9.98;;;3.42;;
57605;SDS011;43430;48.204;11.556;2022-12-07T14:27:49;8.68;;;3.92;;
57605;SDS011;43430;48.204;11.556;2022-12-07T14:30:20;7.97;;;3.50;;
57605;SDS011;43430;48.204;11.556;2022-12-07T14:32:46;10.75;;;4.20;;
57605;SDS011;43430;48.204;11.556;2022-12-07T14:35:16;9.20;;;4.07;;
57605;SDS011;43430;48.204;11.556;2022-12-07T14:37:43;8.70;;;3.83;;
57605;SDS011;43430;48.204;11.556;2022-12-07T14:40:18;9.88;;;3.67;;
57605;SDS011;43430;48.204;11.556;2022-12-07T14:42:49;11.27;;;5.22;;
57605;SDS011;43430;48.204;11.556;2022-12-07T14:45:19;10.30;;;4.68;;
57605;SDS011;43430;48.204;11.556;2022-12-07T14:47:46;11.80;;;5.35;;
57605;SDS011;43430;48.204;11.556;2022-12-07T14:50:13;14.32;;;6.22;;
57605;SDS011;43430;48.204;11.556;2022-12-07T14:52:41;12.30;;;5.15;;
57605;SDS011;43430;48.204;11.556;2022-12-07T14:55:16;15.20;;;6.50;;
57605;SDS011;43430;48.204;11.556;2022-12-07T14:57:48;12.38;;;5.35;;
57605;SDS011;43430;48.204;11.556;2022-12-07T15:00:14;11.32;;;5.25;;
57605;SDS011;43430;48.204;11.556;2022-12-07T15:02:41;12.82;;;5.25;;
57605;SDS011;43430;48.204;11.556;2022-12-07T15:05:06;14.07;;;5.47;;
57605;SDS011;43430;48.204;11.556;2022-12-07T15:07:32;10.93;;;5.35;;
57605;SDS011;43430;48.204;11.556;2022-12-07T15:09:57;12.93;;;5.57;;
57605;SDS011;43430;48.204;11.556;2022-12-07T15:12:22;12.77;;;6.13;;
57605;SDS011;43430;48.204;11.556;2022-12-07T15:14:49;10.93;;;4.97;;
57605;SDS011;43430;48.204;11.556;2022-12-07T15:17:15;13.45;;;5.40;;
57605;SDS011;43430;48.204;11.556;2022-12-07T15:19:40;12.23;;;5.65;;
57605;SDS011;43430;48.204;11.556;2022-12-07T15:22:05;11.98;;;4.85;;
57605;SDS011;43430;48.204;11.556;2022-12-07T15:24:33;12.48;;;5.60;;
57605;SDS011;43430;48.204;11.556;2022-12-07T15:26:59;10.73;;;5.32;;
57605;SDS011;43430;48.204;11.556;2022-12-07T15:29:24;12.73;;;5.75;;
57605;SDS011;43430;48.204;11.556;2022-12-07T15:31:50;12.57;;;5.88;;
57605;SDS011;43430;48.204;11.556;2022-12-07T15:34:16;11.18;;;5.10;;
57605;SDS011;43430;48.204;11.556;2022-12-07T15:36:41;11.52;;;5.13;;
57605;SDS011;43430;48.204;11.556;2022-12-07T15:39:08;17.90;;;6.57;;
57605;SDS011;43430;48.204;11.556;2022-12-07T15:41:34;12.00;;;5.47;;
57605;SDS011;43430;48.204;11.556;2022-12-07T15:44:00;14.07;;;5.85;;
57605;SDS011;43430;48.204;11.556;2022-12-07T15:46:44;13.50;;;5.20;;
57605;SDS011;43430;48.204;11.556;2022-12-07T15:49:10;13.18;;;6.40;;
57605;SDS011;43430;48.204;11.556;2022-12-07T15:51:38;11.80;;;5.35;;
57605;SDS011;43430;48.204;11.556;2022-12-07T15:54:03;11.68;;;5.32;;
57605;SDS011;43430;48.204;11.556;2022-12-07T15:56:28;11.38;;;5.47;;
57605;SDS011;43430;48.204;11.556;2022-12-07T15:58:55;12.13;;;5.82;;
57605;SDS011;43430;48.204;11.556;2022-12-07T16:01:21;12.55;;;6.13;;
57605;SDS011;43430;48.204;11.556;2022-12-07T16:03:48;12.95;;;5.78;;
57605;SDS011;43430;48.204;11.556;2022-12-07T16:06:16;27.65;;;14.32;;
57605;SDS011;43430;48.204;11.556;2022-12-07T16:08:43;25.10;;;23.58;;
57605;SDS011;43430;48.204;11.556;2022-12-07T16:11:09;15.40;;;6.15;;
57605;SDS011;43430;48.204;11.556;2022-12-07T16:13:35;12.77;;;6.38;;
57605;SDS011;43430;48.204;11.556;2022-12-07T16:16:04;13.02;;;11.73;;
57605;SDS011;43430;48.204;11.556;2022-12-07T16:18:31;12.13;;;5.40;;
57605;SDS011;43430;48.204;11.556;2022-12-07T16:20:56;13.93;;;5.97;;
57605;SDS011;43430;48.204;11.556;2022-12-07T16:23:22;11.52;;;5.22;;
57605;SDS011;43430;48.204;11.556;2022-12-07T16:25:47;11.18;;;5.72;;
57605;SDS011;43430;48.204;11.556;2022-12-07T16:28:12;13.55;;;5.53;;
57605;SDS011;43430;48.204;11.556;2022-12-07T16:30:38;14.90;;;6.38;;
57605;SDS011;43430;48.204;11.556;2022-12-07T16:33:03;14.75;;;6.85;;
57605;SDS011;43430;48.204;11.556;2022-12-07T16:35:28;12.82;;;5.85;;
57605;SDS011;43430;48.204;11.556;2022-12-07T16:37:54;15.32;;;6.70;;
57605;SDS011;43430;48.204;11.556;2022-12-07T16:40:19;13.45;;;6.07;;
57605;SDS011;43430;48.204;11.556;2022-12-07T16:42:44;12.75;;;5.18;;
57605;SDS011;43430;48.204;11.556;2022-12-07T16:45:10;12.52;;;5.45;;
57605;SDS011;43430;48.204;11.556;2022-12-07T16:47:38;13.73;;;5.60;;
57605;SDS011;43430;48.204;11.556;2022-12-07T16:50:04;10.93;;;5.30;;
57605;SDS011;43430;48.204;11.556;2022-12-07T16:52:30;12.30;;;4.90;;
57605;SDS011;43430;48.204;11.556;2022-12-07T16:54:55;12.73;;;5.88;;
57605;SDS011;43430;48.204;11.556;2022-12-07T16:57:20;12.60;;;5.55;;
57605;SDS011;43430;48.204;11.556;2022-12-07T16:59:46;19.17;;;5.75;;
57605;SDS011;43430;48.204;11.556;2022-12-07T17:02:11;14.93;;;5.93;;
57605;SDS011;43430;48.204;11.556;2022-12-07T17:04:37;12.13;;;6.15;;
57605;SDS011;43430;48.204;11.556;2022-12-07T17:07:07;15.77;;;6.75;;